sensor_id;sensor_type;location;lat;lon;timestamp;temperature;humidity
78611;SHT30;67932;50.474;4.436;2023-05-13T00:00:54;12.69;86.37
78611;SHT30;67932;50.474;4.436;2023-05-13T00:03:20;12.72;86.55
78611;SHT30;67932;50.474;4.436;2023-05-13T00:05:46;12.69;86.27
78611;SHT30;67932;50.474;4.436;2023-05-13T00:08:16;12.70;86.25
78611;SHT30;67932;50.474;4.436;2023-05-13T00:10:42;12.70;85.91
78611;SHT30;67932;50.474;4.436;2023-05-13T00:13:08;12.80;85.86
78611;SHT30;67932;50.474;4.436;2023-05-13T00:15:34;12.82;85.56
78611;SHT30;67932;50.474;4.436;2023-05-13T00:18:01;12.83;85.20
78611;SHT30;67932;50.474;4.436;2023-05-13T00:20:27;12.84;85.03
78611;SHT30;67932;50.474;4.436;2023-05-13T00:22:53;12.87;84.94
78611;SHT30;67932;50.474;4.436;2023-05-13T00:25:21;12.87;84.49
78611;SHT30;67932;50.474;4.436;2023-05-13T00:27:47;12.87;84.16
78611;SHT30;67932;50.474;4.436;2023-05-13T00:30:13;12.87;84.48
78611;SHT30;67932;50.474;4.436;2023-05-13T00:32:39;12.84;85.21
78611;SHT30;67932;50.474;4.436;2023-05-13T00:35:06;12.84;84.73
78611;SHT30;67932;50.474;4.436;2023-05-13T00:37:32;12.82;85.20
78611;SHT30;67932;50.474;4.436;2023-05-13T00:39:58;12.79;85.42
78611;SHT30;67932;50.474;4.436;2023-05-13T00:42:26;12.82;86.01
78611;SHT30;67932;50.474;4.436;2023-05-13T00:44:52;12.76;85.71
78611;SHT30;67932;50.474;4.436;2023-05-13T00:47:19;12.77;85.53
78611;SHT30;67932;50.474;4.436;2023-05-13T00:49:46;12.73;85.16
78611;SHT30;67932;50.474;4.436;2023-05-13T00:52:13;12.72;85.17
78611;SHT30;67932;50.474;4.436;2023-05-13T00:54:39;12.69;85.01
78611;SHT30;67932;50.474;4.436;2023-05-13T00:57:05;12.66;84.84
78611;SHT30;67932;50.474;4.436;2023-05-13T00:59:32;12.63;84.87
78611;SHT30;67932;50.474;4.436;2023-05-13T01:08:01;12.48;85.12
78611;SHT30;67932;50.474;4.436;2023-05-13T01:10:46;12.46;85.15
78611;SHT30;67932;50.474;4.436;2023-05-13T01:13:22;12.43;85.45
78611;SHT30;67932;50.474;4.436;2023-05-13T01:18:46;12.31;85.46
78611;SHT30;67932;50.474;4.436;2023-05-13T01:21:14;12.26;85.63
78611;SHT30;67932;50.474;4.436;2023-05-13T01:23:40;12.21;85.88
78611;SHT30;67932;50.474;4.436;2023-05-13T01:26:07;12.17;85.92
78611;SHT30;67932;50.474;4.436;2023-05-13T01:28:33;12.17;86.07
78611;SHT30;67932;50.474;4.436;2023-05-13T01:30:59;12.11;86.27
78611;SHT30;67932;50.474;4.436;2023-05-13T01:33:26;12.05;86.65
78611;SHT30;67932;50.474;4.436;2023-05-13T01:35:53;12.02;86.73
78611;SHT30;67932;50.474;4.436;2023-05-13T01:38:20;11.99;86.81
78611;SHT30;67932;50.474;4.436;2023-05-13T01:40:46;11.99;86.89
78611;SHT30;67932;50.474;4.436;2023-05-13T01:43:13;11.99;86.78
78611;SHT30;67932;50.474;4.436;2023-05-13T01:45:40;12.02;86.64
78611;SHT30;67932;50.474;4.436;2023-05-13T01:48:06;11.98;86.40
78611;SHT30;67932;50.474;4.436;2023-05-13T01:50:32;12.01;86.34
78611;SHT30;67932;50.474;4.436;2023-05-13T01:52:58;11.99;86.14
78611;SHT30;67932;50.474;4.436;2023-05-13T01:55:25;12.02;86.09
78611;SHT30;67932;50.474;4.436;2023-05-13T01:57:52;12.01;86.01
78611;SHT30;67932;50.474;4.436;2023-05-13T02:00:18;12.01;85.75
78611;SHT30;67932;50.474;4.436;2023-05-13T02:02:44;12.04;85.69
78611;SHT30;67932;50.474;4.436;2023-05-13T02:05:11;12.01;85.55
78611;SHT30;67932;50.474;4.436;2023-05-13T02:07:38;11.98;85.56
78611;SHT30;67932;50.474;4.436;2023-05-13T02:10:04;12.01;85.56
78611;SHT30;67932;50.474;4.436;2023-05-13T02:12:31;12.02;85.53
78611;SHT30;67932;50.474;4.436;2023-05-13T02:14:57;11.99;85.40
78611;SHT30;67932;50.474;4.436;2023-05-13T02:17:24;12.01;85.27
78611;SHT30;67932;50.474;4.436;2023-05-13T02:19:50;12.01;85.28
78611;SHT30;67932;50.474;4.436;2023-05-13T02:22:16;12.02;85.29
78611;SHT30;67932;50.474;4.436;2023-05-13T02:24:42;12.01;85.35
78611;SHT30;67932;50.474;4.436;2023-05-13T02:27:09;11.98;85.32
78611;SHT30;67932;50.474;4.436;2023-05-13T02:29:37;12.06;85.35
78611;SHT30;67932;50.474;4.436;2023-05-13T02:32:04;12.06;85.33
78611;SHT30;67932;50.474;4.436;2023-05-13T02:34:30;12.06;85.06
78611;SHT30;67932;50.474;4.436;2023-05-13T02:36:56;12.06;85.08
78611;SHT30;67932;50.474;4.436;2023-05-13T02:39:23;12.09;84.94
78611;SHT30;67932;50.474;4.436;2023-05-13T02:41:49;12.09;84.88
78611;SHT30;67932;50.474;4.436;2023-05-13T02:44:15;12.12;84.94
78611;SHT30;67932;50.474;4.436;2023-05-13T02:46:41;12.08;84.79
78611;SHT30;67932;50.474;4.436;2023-05-13T02:49:09;12.11;84.90
78611;SHT30;67932;50.474;4.436;2023-05-13T02:51:35;12.05;85.04
78611;SHT30;67932;50.474;4.436;2023-05-13T02:54:02;12.11;85.26
78611;SHT30;67932;50.474;4.436;2023-05-13T02:56:28;12.08;85.11
78611;SHT30;67932;50.474;4.436;2023-05-13T02:58:54;12.04;85.22
78611;SHT30;67932;50.474;4.436;2023-05-13T03:01:21;12.02;85.37
78611;SHT30;67932;50.474;4.436;2023-05-13T03:03:47;12.01;85.35
78611;SHT30;67932;50.474;4.436;2023-05-13T03:06:15;11.95;85.81
78611;SHT30;67932;50.474;4.436;2023-05-13T03:08:41;11.92;85.76
78611;SHT30;67932;50.474;4.436;2023-05-13T03:11:07;11.87;85.94
78611;SHT30;67932;50.474;4.436;2023-05-13T03:13:33;11.84;86.02
78611;SHT30;67932;50.474;4.436;2023-05-13T03:15:59;11.82;86.42
78611;SHT30;67932;50.474;4.436;2023-05-13T03:18:26;11.81;86.44
78611;SHT30;67932;50.474;4.436;2023-05-13T03:20:53;11.78;86.52
78611;SHT30;67932;50.474;4.436;2023-05-13T03:23:20;11.74;86.57
78611;SHT30;67932;50.474;4.436;2023-05-13T03:25:46;11.67;86.50
78611;SHT30;67932;50.474;4.436;2023-05-13T03:28:12;11.63;86.72
78611;SHT30;67932;50.474;4.436;2023-05-13T03:30:39;11.64;86.98
78611;SHT30;67932;50.474;4.436;2023-05-13T03:33:05;11.53;86.82
78611;SHT30;67932;50.474;4.436;2023-05-13T03:35:31;11.53;87.25
78611;SHT30;67932;50.474;4.436;2023-05-13T03:37:58;11.56;87.50
78611;SHT30;67932;50.474;4.436;2023-05-13T03:40:24;11.51;87.13
78611;SHT30;67932;50.474;4.436;2023-05-13T03:42:50;11.44;87.43
78611;SHT30;67932;50.474;4.436;2023-05-13T03:45:16;11.44;87.46
78611;SHT30;67932;50.474;4.436;2023-05-13T03:47:43;11.38;87.68
78611;SHT30;67932;50.474;4.436;2023-05-13T03:50:09;11.33;87.93
78611;SHT30;67932;50.474;4.436;2023-05-13T03:52:35;11.31;88.13
78611;SHT30;67932;50.474;4.436;2023-05-13T03:55:01;11.27;88.37
78611;SHT30;67932;50.474;4.436;2023-05-13T03:57:28;11.23;88.50
78611;SHT30;67932;50.474;4.436;2023-05-13T03:59:54;11.22;88.68
78611;SHT30;67932;50.474;4.436;2023-05-13T04:02:20;11.20;88.77
78611;SHT30;67932;50.474;4.436;2023-05-13T04:04:47;11.20;88.89
78611;SHT30;67932;50.474;4.436;2023-05-13T04:07:13;11.23;88.98
78611;SHT30;67932;50.474;4.436;2023-05-13T04:09:39;11.22;88.93
78611;SHT30;67932;50.474;4.436;2023-05-13T04:12:06;11.20;88.97
78611;SHT30;67932;50.474;4.436;2023-05-13T04:14:32;11.19;89.01
78611;SHT30;67932;50.474;4.436;2023-05-13T04:16:58;11.22;89.08
78611;SHT30;67932;50.474;4.436;2023-05-13T04:19:24;11.22;89.09
78611;SHT30;67932;50.474;4.436;2023-05-13T04:21:51;11.19;89.17
78611;SHT30;67932;50.474;4.436;2023-05-13T04:24:17;11.22;89.17
78611;SHT30;67932;50.474;4.436;2023-05-13T04:26:43;11.23;89.14
78611;SHT30;67932;50.474;4.436;2023-05-13T04:29:09;11.23;89.18
78611;SHT30;67932;50.474;4.436;2023-05-13T04:31:36;11.22;89.19
78611;SHT30;67932;50.474;4.436;2023-05-13T04:34:02;11.19;89.27
78611;SHT30;67932;50.474;4.436;2023-05-13T04:36:28;11.23;89.24
78611;SHT30;67932;50.474;4.436;2023-05-13T04:38:54;11.24;89.23
78611;SHT30;67932;50.474;4.436;2023-05-13T04:41:21;11.27;89.16
78611;SHT30;67932;50.474;4.436;2023-05-13T04:43:47;11.23;89.18
78611;SHT30;67932;50.474;4.436;2023-05-13T04:46:13;11.28;89.19
78611;SHT30;67932;50.474;4.436;2023-05-13T04:48:39;11.26;89.09
78611;SHT30;67932;50.474;4.436;2023-05-13T04:51:06;11.30;89.07
78611;SHT30;67932;50.474;4.436;2023-05-13T04:53:32;11.31;89.08
78611;SHT30;67932;50.474;4.436;2023-05-13T04:55:58;11.30;89.03
78611;SHT30;67932;50.474;4.436;2023-05-13T04:58:27;11.34;88.97
78611;SHT30;67932;50.474;4.436;2023-05-13T05:00:54;11.37;88.86
78611;SHT30;67932;50.474;4.436;2023-05-13T05:03:20;11.36;88.82
78611;SHT30;67932;50.474;4.436;2023-05-13T05:05:47;11.34;88.78
78611;SHT30;67932;50.474;4.436;2023-05-13T05:08:13;11.43;88.78
78611;SHT30;67932;50.474;4.436;2023-05-13T05:10:39;11.41;88.66
78611;SHT30;67932;50.474;4.436;2023-05-13T05:13:05;11.41;88.71
78611;SHT30;67932;50.474;4.436;2023-05-13T05:15:32;11.43;88.65
78611;SHT30;67932;50.474;4.436;2023-05-13T05:17:58;11.38;88.67
78611;SHT30;67932;50.474;4.436;2023-05-13T05:20:24;11.38;88.73
78611;SHT30;67932;50.474;4.436;2023-05-13T05:22:50;11.43;88.80
78611;SHT30;67932;50.474;4.436;2023-05-13T05:25:17;11.46;88.65
78611;SHT30;67932;50.474;4.436;2023-05-13T05:27:43;11.48;88.51
78611;SHT30;67932;50.474;4.436;2023-05-13T05:30:10;11.53;88.54
78611;SHT30;67932;50.474;4.436;2023-05-13T05:32:36;11.56;88.31
78611;SHT30;67932;50.474;4.436;2023-05-13T05:35:03;11.58;88.37
78611;SHT30;67932;50.474;4.436;2023-05-13T05:37:30;11.66;88.19
78611;SHT30;67932;50.474;4.436;2023-05-13T05:39:56;11.73;87.99
78611;SHT30;67932;50.474;4.436;2023-05-13T05:42:22;11.74;87.92
78611;SHT30;67932;50.474;4.436;2023-05-13T05:44:49;11.77;87.71
78611;SHT30;67932;50.474;4.436;2023-05-13T05:47:15;11.79;87.69
78611;SHT30;67932;50.474;4.436;2023-05-13T05:49:41;11.85;87.62
78611;SHT30;67932;50.474;4.436;2023-05-13T05:52:07;11.87;87.35
78611;SHT30;67932;50.474;4.436;2023-05-13T05:54:36;11.94;87.42
78611;SHT30;67932;50.474;4.436;2023-05-13T05:57:02;11.99;87.18
78611;SHT30;67932;50.474;4.436;2023-05-13T05:59:28;12.01;86.77
78611;SHT30;67932;50.474;4.436;2023-05-13T06:01:54;12.08;86.80
78611;SHT30;67932;50.474;4.436;2023-05-13T06:04:21;12.15;86.34
78611;SHT30;67932;50.474;4.436;2023-05-13T06:06:47;12.22;86.47
78611;SHT30;67932;50.474;4.436;2023-05-13T06:09:13;12.31;86.47
78611;SHT30;67932;50.474;4.436;2023-05-13T06:11:39;12.36;86.51
78611;SHT30;67932;50.474;4.436;2023-05-13T06:14:05;12.46;86.25
78611;SHT30;67932;50.474;4.436;2023-05-13T06:16:32;12.56;85.91
78611;SHT30;67932;50.474;4.436;2023-05-13T06:18:58;12.63;85.73
78611;SHT30;67932;50.474;4.436;2023-05-13T06:21:24;12.69;85.59
78611;SHT30;67932;50.474;4.436;2023-05-13T06:23:51;12.73;85.45
78611;SHT30;67932;50.474;4.436;2023-05-13T06:26:17;12.76;85.13
78611;SHT30;67932;50.474;4.436;2023-05-13T06:28:43;12.82;85.12
78611;SHT30;67932;50.474;4.436;2023-05-13T06:31:09;12.87;84.66
78611;SHT30;67932;50.474;4.436;2023-05-13T06:33:35;13.00;83.64
78611;SHT30;67932;50.474;4.436;2023-05-13T06:36:02;12.97;83.91
78611;SHT30;67932;50.474;4.436;2023-05-13T06:38:28;13.04;83.58
78611;SHT30;67932;50.474;4.436;2023-05-13T06:40:54;13.17;82.51
78611;SHT30;67932;50.474;4.436;2023-05-13T06:43:21;13.16;81.06
78611;SHT30;67932;50.474;4.436;2023-05-13T06:45:47;13.31;81.33
78611;SHT30;67932;50.474;4.436;2023-05-13T06:48:14;13.40;80.48
78611;SHT30;67932;50.474;4.436;2023-05-13T06:50:41;13.34;80.33
78611;SHT30;67932;50.474;4.436;2023-05-13T06:53:08;13.43;80.24
78611;SHT30;67932;50.474;4.436;2023-05-13T06:55:36;13.43;80.01
78611;SHT30;67932;50.474;4.436;2023-05-13T06:58:07;13.46;79.59
78611;SHT30;67932;50.474;4.436;2023-05-13T07:00:36;13.51;79.79
78611;SHT30;67932;50.474;4.436;2023-05-13T07:03:04;13.57;79.01
78611;SHT30;67932;50.474;4.436;2023-05-13T07:05:31;13.64;78.74
78611;SHT30;67932;50.474;4.436;2023-05-13T07:07:58;13.67;78.18
78611;SHT30;67932;50.474;4.436;2023-05-13T07:10:24;13.74;78.28
78611;SHT30;67932;50.474;4.436;2023-05-13T07:12:50;13.77;77.94
78611;SHT30;67932;50.474;4.436;2023-05-13T07:15:16;13.83;77.32
78611;SHT30;67932;50.474;4.436;2023-05-13T07:17:43;13.89;76.63
78611;SHT30;67932;50.474;4.436;2023-05-13T07:20:09;13.92;76.59
78611;SHT30;67932;50.474;4.436;2023-05-13T07:22:36;13.95;76.65
78611;SHT30;67932;50.474;4.436;2023-05-13T07:25:02;14.04;77.10
78611;SHT30;67932;50.474;4.436;2023-05-13T07:27:29;14.06;75.68
78611;SHT30;67932;50.474;4.436;2023-05-13T07:29:55;14.11;76.25
78611;SHT30;67932;50.474;4.436;2023-05-13T07:32:21;14.13;75.93
78611;SHT30;67932;50.474;4.436;2023-05-13T07:34:47;14.13;75.86
78611;SHT30;67932;50.474;4.436;2023-05-13T07:37:14;14.18;75.73
78611;SHT30;67932;50.474;4.436;2023-05-13T07:39:40;14.22;75.05
78611;SHT30;67932;50.474;4.436;2023-05-13T07:42:06;14.25;74.99
78611;SHT30;67932;50.474;4.436;2023-05-13T07:44:32;14.33;75.68
78611;SHT30;67932;50.474;4.436;2023-05-13T07:46:59;14.42;75.27
78611;SHT30;67932;50.474;4.436;2023-05-13T07:49:25;14.59;75.00
78611;SHT30;67932;50.474;4.436;2023-05-13T07:51:51;14.60;75.37
78611;SHT30;67932;50.474;4.436;2023-05-13T07:54:17;14.60;74.73
78611;SHT30;67932;50.474;4.436;2023-05-13T07:56:44;14.70;75.19
78611;SHT30;67932;50.474;4.436;2023-05-13T07:59:11;14.79;74.89
78611;SHT30;67932;50.474;4.436;2023-05-13T08:01:37;14.89;74.91
78611;SHT30;67932;50.474;4.436;2023-05-13T08:04:04;14.87;74.11
78611;SHT30;67932;50.474;4.436;2023-05-13T08:06:30;14.94;74.71
78611;SHT30;67932;50.474;4.436;2023-05-13T08:08:57;15.00;73.53
78611;SHT30;67932;50.474;4.436;2023-05-13T08:11:23;15.03;73.86
78611;SHT30;67932;50.474;4.436;2023-05-13T08:13:50;15.08;74.11
78611;SHT30;67932;50.474;4.436;2023-05-13T08:16:17;15.16;73.27
78611;SHT30;67932;50.474;4.436;2023-05-13T08:18:43;15.23;73.35
78611;SHT30;67932;50.474;4.436;2023-05-13T08:21:09;15.28;72.42
78611;SHT30;67932;50.474;4.436;2023-05-13T08:23:36;15.30;72.43
78611;SHT30;67932;50.474;4.436;2023-05-13T08:26:03;15.31;71.41
78611;SHT30;67932;50.474;4.436;2023-05-13T08:28:30;15.35;72.16
78611;SHT30;67932;50.474;4.436;2023-05-13T08:30:56;15.40;71.07
78611;SHT30;67932;50.474;4.436;2023-05-13T08:33:31;15.55;71.37
78611;SHT30;67932;50.474;4.436;2023-05-13T08:35:59;15.57;70.62
78611;SHT30;67932;50.474;4.436;2023-05-13T08:38:25;15.62;70.08
78611;SHT30;67932;50.474;4.436;2023-05-13T08:40:52;15.72;70.19
78611;SHT30;67932;50.474;4.436;2023-05-13T08:43:19;15.72;70.41
78611;SHT30;67932;50.474;4.436;2023-05-13T08:45:46;15.81;70.08
78611;SHT30;67932;50.474;4.436;2023-05-13T08:48:16;15.85;70.60
78611;SHT30;67932;50.474;4.436;2023-05-13T08:50:44;15.89;70.92
78611;SHT30;67932;50.474;4.436;2023-05-13T08:53:11;15.98;70.03
78611;SHT30;67932;50.474;4.436;2023-05-13T08:55:41;16.12;71.26
78611;SHT30;67932;50.474;4.436;2023-05-13T08:58:07;16.19;70.24
78611;SHT30;67932;50.474;4.436;2023-05-13T09:00:34;16.27;68.47
78611;SHT30;67932;50.474;4.436;2023-05-13T09:03:01;16.33;69.41
78611;SHT30;67932;50.474;4.436;2023-05-13T09:05:27;16.46;69.00
78611;SHT30;67932;50.474;4.436;2023-05-13T09:07:55;16.55;67.91
78611;SHT30;67932;50.474;4.436;2023-05-13T09:10:22;16.53;66.92
78611;SHT30;67932;50.474;4.436;2023-05-13T09:12:51;16.60;66.23
78611;SHT30;67932;50.474;4.436;2023-05-13T09:15:22;16.66;66.89
78611;SHT30;67932;50.474;4.436;2023-05-13T09:20:24;16.84;67.30
78611;SHT30;67932;50.474;4.436;2023-05-13T09:22:52;16.90;68.56
78611;SHT30;67932;50.474;4.436;2023-05-13T09:25:20;17.00;66.04
78611;SHT30;67932;50.474;4.436;2023-05-13T09:27:52;17.03;65.39
78611;SHT30;67932;50.474;4.436;2023-05-13T09:30:22;17.13;66.19
78611;SHT30;67932;50.474;4.436;2023-05-13T09:33:15;17.32;65.64
78611;SHT30;67932;50.474;4.436;2023-05-13T09:35:43;17.54;63.67
78611;SHT30;67932;50.474;4.436;2023-05-13T09:38:14;17.85;63.12
78611;SHT30;67932;50.474;4.436;2023-05-13T09:43:18;17.85;63.36
78611;SHT30;67932;50.474;4.436;2023-05-13T09:46:16;17.72;64.63
78611;SHT30;67932;50.474;4.436;2023-05-13T09:48:45;17.71;62.97
78611;SHT30;67932;50.474;4.436;2023-05-13T09:51:15;17.71;63.20
78611;SHT30;67932;50.474;4.436;2023-05-13T09:53:41;17.78;63.26
78611;SHT30;67932;50.474;4.436;2023-05-13T09:56:17;17.85;64.66
78611;SHT30;67932;50.474;4.436;2023-05-13T09:58:49;17.89;65.07
78611;SHT30;67932;50.474;4.436;2023-05-13T10:01:18;17.95;65.69
78611;SHT30;67932;50.474;4.436;2023-05-13T10:03:45;17.90;62.57
78611;SHT30;67932;50.474;4.436;2023-05-13T10:06:12;17.90;62.07
78611;SHT30;67932;50.474;4.436;2023-05-13T10:08:39;18.06;61.60
78611;SHT30;67932;50.474;4.436;2023-05-13T10:11:07;18.14;61.57
78611;SHT30;67932;50.474;4.436;2023-05-13T10:13:34;18.20;61.64
78611;SHT30;67932;50.474;4.436;2023-05-13T10:16:01;18.22;61.98
78611;SHT30;67932;50.474;4.436;2023-05-13T10:18:27;18.37;60.98
78611;SHT30;67932;50.474;4.436;2023-05-13T10:20:54;18.81;59.98
78611;SHT30;67932;50.474;4.436;2023-05-13T10:23:21;18.77;58.37
78611;SHT30;67932;50.474;4.436;2023-05-13T10:25:49;18.80;58.17
78611;SHT30;67932;50.474;4.436;2023-05-13T10:28:17;18.78;59.24
78611;SHT30;67932;50.474;4.436;2023-05-13T10:30:44;18.81;58.95
78611;SHT30;67932;50.474;4.436;2023-05-13T10:33:11;18.94;59.35
78611;SHT30;67932;50.474;4.436;2023-05-13T10:35:39;19.07;57.37
78611;SHT30;67932;50.474;4.436;2023-05-13T10:41:10;19.03;55.49
78611;SHT30;67932;50.474;4.436;2023-05-13T10:43:37;19.05;56.23
78611;SHT30;67932;50.474;4.436;2023-05-13T10:46:06;19.08;55.63
78611;SHT30;67932;50.474;4.436;2023-05-13T10:48:41;19.28;56.21
78611;SHT30;67932;50.474;4.436;2023-05-13T10:51:09;19.72;56.69
78611;SHT30;67932;50.474;4.436;2023-05-13T10:53:49;20.54;51.90
78611;SHT30;67932;50.474;4.436;2023-05-13T10:56:19;20.97;51.64
78611;SHT30;67932;50.474;4.436;2023-05-13T10:59:05;21.04;48.93
78611;SHT30;67932;50.474;4.436;2023-05-13T11:01:38;21.11;50.37
78611;SHT30;67932;50.474;4.436;2023-05-13T11:04:12;21.09;50.84
78611;SHT30;67932;50.474;4.436;2023-05-13T11:06:42;21.19;50.15
78611;SHT30;67932;50.474;4.436;2023-05-13T11:11:53;20.99;51.30
78611;SHT30;67932;50.474;4.436;2023-05-13T11:14:22;21.61;49.10
78611;SHT30;67932;50.474;4.436;2023-05-13T11:16:54;22.65;46.47
78611;SHT30;67932;50.474;4.436;2023-05-13T11:19:33;23.05;45.80
78611;SHT30;67932;50.474;4.436;2023-05-13T11:22:13;22.81;45.84
78611;SHT30;67932;50.474;4.436;2023-05-13T11:25:01;22.23;47.19
78611;SHT30;67932;50.474;4.436;2023-05-13T11:27:36;21.49;49.56
78611;SHT30;67932;50.474;4.436;2023-05-13T11:30:06;21.85;50.29
78611;SHT30;67932;50.474;4.436;2023-05-13T11:32:52;22.51;44.76
78611;SHT30;67932;50.474;4.436;2023-05-13T11:35:26;22.91;44.24
78611;SHT30;67932;50.474;4.436;2023-05-13T11:37:54;22.81;43.07
78611;SHT30;67932;50.474;4.436;2023-05-13T11:40:22;22.81;44.85
78611;SHT30;67932;50.474;4.436;2023-05-13T11:42:49;23.86;42.73
78611;SHT30;67932;50.474;4.436;2023-05-13T11:45:20;24.59;39.88
78611;SHT30;67932;50.474;4.436;2023-05-13T11:47:48;25.02;39.00
78611;SHT30;67932;50.474;4.436;2023-05-13T11:52:55;22.75;44.60
78611;SHT30;67932;50.474;4.436;2023-05-13T11:55:28;21.79;44.90
78611;SHT30;67932;50.474;4.436;2023-05-13T11:57:55;22.56;43.47
78611;SHT30;67932;50.474;4.436;2023-05-13T12:00:40;22.77;42.97
78611;SHT30;67932;50.474;4.436;2023-05-13T12:03:11;22.78;42.03
78611;SHT30;67932;50.474;4.436;2023-05-13T12:05:41;22.86;42.58
78611;SHT30;67932;50.474;4.436;2023-05-13T12:08:09;23.18;41.69
78611;SHT30;67932;50.474;4.436;2023-05-13T12:10:41;23.39;40.73
78611;SHT30;67932;50.474;4.436;2023-05-13T12:13:07;23.72;39.70
78611;SHT30;67932;50.474;4.436;2023-05-13T12:15:34;24.24;39.60
78611;SHT30;67932;50.474;4.436;2023-05-13T12:18:01;24.77;37.33
78611;SHT30;67932;50.474;4.436;2023-05-13T12:20:27;25.78;36.34
78611;SHT30;67932;50.474;4.436;2023-05-13T12:22:54;26.44;35.56
78611;SHT30;67932;50.474;4.436;2023-05-13T12:25:45;26.61;34.49
78611;SHT30;67932;50.474;4.436;2023-05-13T12:28:20;26.94;34.02
78611;SHT30;67932;50.474;4.436;2023-05-13T12:30:55;27.28;33.61
78611;SHT30;67932;50.474;4.436;2023-05-13T12:33:24;27.34;34.48
78611;SHT30;67932;50.474;4.436;2023-05-13T12:38:52;27.74;32.38
78611;SHT30;67932;50.474;4.436;2023-05-13T12:41:20;28.09;32.00
78611;SHT30;67932;50.474;4.436;2023-05-13T12:43:46;27.96;32.10
78611;SHT30;67932;50.474;4.436;2023-05-13T12:46:12;27.80;33.37
78611;SHT30;67932;50.474;4.436;2023-05-13T12:48:38;28.24;33.07
78611;SHT30;67932;50.474;4.436;2023-05-13T12:51:05;27.88;31.72
78611;SHT30;67932;50.474;4.436;2023-05-13T12:53:32;27.21;33.53
78611;SHT30;67932;50.474;4.436;2023-05-13T12:55:58;25.69;34.47
78611;SHT30;67932;50.474;4.436;2023-05-13T12:58:25;24.46;36.79
78611;SHT30;67932;50.474;4.436;2023-05-13T13:00:52;26.40;33.81
78611;SHT30;67932;50.474;4.436;2023-05-13T13:03:18;27.32;31.38
78611;SHT30;67932;50.474;4.436;2023-05-13T13:05:44;27.55;31.94
78611;SHT30;67932;50.474;4.436;2023-05-13T13:08:10;28.07;31.57
78611;SHT30;67932;50.474;4.436;2023-05-13T13:10:36;26.03;33.86
78611;SHT30;67932;50.474;4.436;2023-05-13T13:13:03;24.60;36.43
78611;SHT30;67932;50.474;4.436;2023-05-13T13:15:29;24.74;35.62
78611;SHT30;67932;50.474;4.436;2023-05-13T13:17:55;26.40;31.56
78611;SHT30;67932;50.474;4.436;2023-05-13T13:20:22;26.19;33.68
78611;SHT30;67932;50.474;4.436;2023-05-13T13:22:48;25.86;33.98
78611;SHT30;67932;50.474;4.436;2023-05-13T13:25:14;24.31;37.34
78611;SHT30;67932;50.474;4.436;2023-05-13T13:27:40;23.21;38.22
78611;SHT30;67932;50.474;4.436;2023-05-13T13:30:07;24.46;38.01
78611;SHT30;67932;50.474;4.436;2023-05-13T13:32:33;25.07;37.13
78611;SHT30;67932;50.474;4.436;2023-05-13T13:35:00;26.39;35.16
78611;SHT30;67932;50.474;4.436;2023-05-13T13:37:28;27.62;32.47
78611;SHT30;67932;50.474;4.436;2023-05-13T13:39:54;28.24;30.55
78611;SHT30;67932;50.474;4.436;2023-05-13T13:42:21;29.12;27.58
78611;SHT30;67932;50.474;4.436;2023-05-13T13:44:47;29.32;26.10
78611;SHT30;67932;50.474;4.436;2023-05-13T13:47:14;29.04;25.90
78611;SHT30;67932;50.474;4.436;2023-05-13T13:49:40;28.71;27.48
78611;SHT30;67932;50.474;4.436;2023-05-13T13:52:07;29.08;27.19
78611;SHT30;67932;50.474;4.436;2023-05-13T13:54:33;28.85;26.54
78611;SHT30;67932;50.474;4.436;2023-05-13T13:57:00;29.22;27.19
78611;SHT30;67932;50.474;4.436;2023-05-13T13:59:26;29.65;27.40
78611;SHT30;67932;50.474;4.436;2023-05-13T14:01:52;29.49;27.70
78611;SHT30;67932;50.474;4.436;2023-05-13T14:04:19;28.82;28.81
78611;SHT30;67932;50.474;4.436;2023-05-13T14:06:50;28.97;27.38
78611;SHT30;67932;50.474;4.436;2023-05-13T14:09:16;29.25;26.72
78611;SHT30;67932;50.474;4.436;2023-05-13T14:11:42;29.35;25.24
78611;SHT30;67932;50.474;4.436;2023-05-13T14:14:09;28.88;26.79
78611;SHT30;67932;50.474;4.436;2023-05-13T14:16:35;26.91;29.21
78611;SHT30;67932;50.474;4.436;2023-05-13T14:19:02;26.98;30.82
78611;SHT30;67932;50.474;4.436;2023-05-13T14:21:28;27.82;30.91
78611;SHT30;67932;50.474;4.436;2023-05-13T14:23:54;28.23;30.70
78611;SHT30;67932;50.474;4.436;2023-05-13T14:26:21;28.32;30.89
78611;SHT30;67932;50.474;4.436;2023-05-13T14:28:47;28.65;29.54
78611;SHT30;67932;50.474;4.436;2023-05-13T14:31:13;28.64;29.87
78611;SHT30;67932;50.474;4.436;2023-05-13T14:33:40;28.77;28.07
78611;SHT30;67932;50.474;4.436;2023-05-13T14:36:08;28.77;28.18
78611;SHT30;67932;50.474;4.436;2023-05-13T14:38:36;27.19;30.69
78611;SHT30;67932;50.474;4.436;2023-05-13T14:41:04;25.92;31.79
78611;SHT30;67932;50.474;4.436;2023-05-13T14:43:31;24.94;31.67
78611;SHT30;67932;50.474;4.436;2023-05-13T14:45:57;24.24;33.66
78611;SHT30;67932;50.474;4.436;2023-05-13T14:48:23;26.07;32.20
78611;SHT30;67932;50.474;4.436;2023-05-13T14:50:50;27.25;30.08
78611;SHT30;67932;50.474;4.436;2023-05-13T14:53:17;26.91;30.01
78611;SHT30;67932;50.474;4.436;2023-05-13T14:55:43;27.50;29.60
78611;SHT30;67932;50.474;4.436;2023-05-13T14:58:09;27.08;29.25
78611;SHT30;67932;50.474;4.436;2023-05-13T15:00:36;26.21;30.85
78611;SHT30;67932;50.474;4.436;2023-05-13T15:03:02;25.21;33.46
78611;SHT30;67932;50.474;4.436;2023-05-13T15:05:29;25.31;33.22
78611;SHT30;67932;50.474;4.436;2023-05-13T15:07:55;24.91;33.37
78611;SHT30;67932;50.474;4.436;2023-05-13T15:10:23;24.72;34.14
78611;SHT30;67932;50.474;4.436;2023-05-13T15:12:49;24.27;33.47
78611;SHT30;67932;50.474;4.436;2023-05-13T15:15:15;23.80;34.51
78611;SHT30;67932;50.474;4.436;2023-05-13T15:17:41;23.21;35.29
78611;SHT30;67932;50.474;4.436;2023-05-13T15:20:08;22.97;36.22
78611;SHT30;67932;50.474;4.436;2023-05-13T15:22:34;23.07;36.94
78611;SHT30;67932;50.474;4.436;2023-05-13T15:25:00;24.87;33.76
78611;SHT30;67932;50.474;4.436;2023-05-13T15:27:27;25.80;33.03
78611;SHT30;67932;50.474;4.436;2023-05-13T15:29:54;26.39;32.67
78611;SHT30;67932;50.474;4.436;2023-05-13T15:32:20;27.14;31.37
78611;SHT30;67932;50.474;4.436;2023-05-13T15:34:46;27.48;31.33
78611;SHT30;67932;50.474;4.436;2023-05-13T15:37:12;26.83;31.74
78611;SHT30;67932;50.474;4.436;2023-05-13T15:39:39;25.41;31.95
78611;SHT30;67932;50.474;4.436;2023-05-13T15:42:06;24.70;32.71
78611;SHT30;67932;50.474;4.436;2023-05-13T15:44:32;26.10;31.85
78611;SHT30;67932;50.474;4.436;2023-05-13T15:46:59;26.98;31.02
78611;SHT30;67932;50.474;4.436;2023-05-13T15:49:25;25.76;32.46
78611;SHT30;67932;50.474;4.436;2023-05-13T15:51:52;24.64;35.18
78611;SHT30;67932;50.474;4.436;2023-05-13T15:54:20;23.37;41.58
78611;SHT30;67932;50.474;4.436;2023-05-13T15:56:46;22.70;41.96